sensor_id;sensor_type;location;lat;lon;timestamp;temperature;humidity
78886;DHT22;68269;52.514;5.722;2023-05-27T00:01:49;12.00;58.10
78886;DHT22;68269;52.514;5.722;2023-05-27T00:04:18;11.90;58.10
78886;DHT22;68269;52.514;5.722;2023-05-27T00:06:48;11.90;58.20
78886;DHT22;68269;52.514;5.722;2023-05-27T00:09:17;11.90;58.20
78886;DHT22;68269;52.514;5.722;2023-05-27T00:11:46;11.90;58.30
78886;DHT22;68269;52.514;5.722;2023-05-27T00:14:18;11.80;58.30
78886;DHT22;68269;52.514;5.722;2023-05-27T00:16:48;11.80;58.40
78886;DHT22;68269;52.514;5.722;2023-05-27T00:19:18;11.70;58.40
78886;DHT22;68269;52.514;5.722;2023-05-27T00:21:48;11.70;58.50
78886;DHT22;68269;52.514;5.722;2023-05-27T00:24:18;11.70;58.50
78886;DHT22;68269;52.514;5.722;2023-05-27T00:26:48;11.70;58.50
78886;DHT22;68269;52.514;5.722;2023-05-27T00:29:20;11.70;58.50
78886;DHT22;68269;52.514;5.722;2023-05-27T00:31:50;11.70;58.60
78886;DHT22;68269;52.514;5.722;2023-05-27T00:34:20;11.60;58.60
78886;DHT22;68269;52.514;5.722;2023-05-27T00:36:49;11.50;58.70
78886;DHT22;68269;52.514;5.722;2023-05-27T00:39:18;11.50;58.70
78886;DHT22;68269;52.514;5.722;2023-05-27T00:41:49;11.50;58.70
78886;DHT22;68269;52.514;5.722;2023-05-27T00:44:21;11.50;58.80
78886;DHT22;68269;52.514;5.722;2023-05-27T00:46:50;11.40;58.90
78886;DHT22;68269;52.514;5.722;2023-05-27T00:49:20;11.40;58.90
78886;DHT22;68269;52.514;5.722;2023-05-27T00:51:51;11.40;59.00
78886;DHT22;68269;52.514;5.722;2023-05-27T00:54:21;11.40;58.90
78886;DHT22;68269;52.514;5.722;2023-05-27T00:56:50;11.40;59.00
78886;DHT22;68269;52.514;5.722;2023-05-27T00:59:23;11.30;59.00
78886;DHT22;68269;52.514;5.722;2023-05-27T01:01:52;11.30;59.10
78886;DHT22;68269;52.514;5.722;2023-05-27T01:04:22;11.30;59.10
78886;DHT22;68269;52.514;5.722;2023-05-27T01:06:58;11.20;59.10
78886;DHT22;68269;52.514;5.722;2023-05-27T01:09:37;11.20;59.20
78886;DHT22;68269;52.514;5.722;2023-05-27T01:12:12;11.20;59.30
78886;DHT22;68269;52.514;5.722;2023-05-27T01:14:49;11.10;59.30
78886;DHT22;68269;52.514;5.722;2023-05-27T01:17:19;11.10;59.30
78886;DHT22;68269;52.514;5.722;2023-05-27T01:19:52;11.10;59.30
78886;DHT22;68269;52.514;5.722;2023-05-27T01:22:28;11.10;59.40
78886;DHT22;68269;52.514;5.722;2023-05-27T01:24:57;11.10;59.40
78886;DHT22;68269;52.514;5.722;2023-05-27T01:27:26;11.00;59.40
78886;DHT22;68269;52.514;5.722;2023-05-27T01:29:56;11.00;59.40
78886;DHT22;68269;52.514;5.722;2023-05-27T01:32:30;11.00;59.50
78886;DHT22;68269;52.514;5.722;2023-05-27T01:35:07;11.00;59.50
78886;DHT22;68269;52.514;5.722;2023-05-27T01:37:43;11.00;59.60
78886;DHT22;68269;52.514;5.722;2023-05-27T01:40:14;10.90;59.60
78886;DHT22;68269;52.514;5.722;2023-05-27T01:42:44;10.90;59.60
78886;DHT22;68269;52.514;5.722;2023-05-27T01:45:15;10.90;59.60
78886;DHT22;68269;52.514;5.722;2023-05-27T01:47:44;10.90;59.60
78886;DHT22;68269;52.514;5.722;2023-05-27T01:50:15;10.80;59.70
78886;DHT22;68269;52.514;5.722;2023-05-27T01:52:46;10.80;59.70
78886;DHT22;68269;52.514;5.722;2023-05-27T01:55:16;10.80;59.80
78886;DHT22;68269;52.514;5.722;2023-05-27T01:57:46;10.80;59.80
78886;DHT22;68269;52.514;5.722;2023-05-27T02:00:17;10.80;59.80
78886;DHT22;68269;52.514;5.722;2023-05-27T02:02:46;10.80;59.90
78886;DHT22;68269;52.514;5.722;2023-05-27T02:05:18;10.70;59.90
78886;DHT22;68269;52.514;5.722;2023-05-27T02:07:50;10.70;59.90
78886;DHT22;68269;52.514;5.722;2023-05-27T02:10:19;10.70;60.00
78886;DHT22;68269;52.514;5.722;2023-05-27T02:12:48;10.60;60.00
78886;DHT22;68269;52.514;5.722;2023-05-27T02:15:19;10.60;60.00
78886;DHT22;68269;52.514;5.722;2023-05-27T02:17:50;10.60;60.00
78886;DHT22;68269;52.514;5.722;2023-05-27T02:20:21;10.60;60.00
78886;DHT22;68269;52.514;5.722;2023-05-27T02:22:54;10.60;60.00
78886;DHT22;68269;52.514;5.722;2023-05-27T02:25:23;10.50;60.10
78886;DHT22;68269;52.514;5.722;2023-05-27T02:27:53;10.50;60.10
78886;DHT22;68269;52.514;5.722;2023-05-27T02:30:22;10.50;60.20
78886;DHT22;68269;52.514;5.722;2023-05-27T02:32:52;10.50;60.20
78886;DHT22;68269;52.514;5.722;2023-05-27T02:35:21;10.50;60.30
78886;DHT22;68269;52.514;5.722;2023-05-27T02:37:55;10.50;60.30
78886;DHT22;68269;52.514;5.722;2023-05-27T02:40:25;10.50;60.30
78886;DHT22;68269;52.514;5.722;2023-05-27T02:42:55;10.40;60.30
78886;DHT22;68269;52.514;5.722;2023-05-27T02:45:25;10.40;60.40
78886;DHT22;68269;52.514;5.722;2023-05-27T02:47:55;10.40;60.40
78886;DHT22;68269;52.514;5.722;2023-05-27T02:50:27;10.40;60.50
78886;DHT22;68269;52.514;5.722;2023-05-27T02:52:59;10.40;60.50
78886;DHT22;68269;52.514;5.722;2023-05-27T02:55:29;10.40;60.50
78886;DHT22;68269;52.514;5.722;2023-05-27T02:57:58;10.40;60.50
78886;DHT22;68269;52.514;5.722;2023-05-27T03:00:29;10.40;60.50
78886;DHT22;68269;52.514;5.722;2023-05-27T03:02:59;10.40;60.60
78886;DHT22;68269;52.514;5.722;2023-05-27T03:05:30;10.40;60.60
78886;DHT22;68269;52.514;5.722;2023-05-27T03:08:02;10.40;60.70
78886;DHT22;68269;52.514;5.722;2023-05-27T03:10:32;10.40;60.70
78886;DHT22;68269;52.514;5.722;2023-05-27T03:13:01;10.40;60.70
78886;DHT22;68269;52.514;5.722;2023-05-27T03:15:31;10.40;60.70
78886;DHT22;68269;52.514;5.722;2023-05-27T03:18:01;10.40;60.70
78886;DHT22;68269;52.514;5.722;2023-05-27T03:20:31;10.30;60.80
78886;DHT22;68269;52.514;5.722;2023-05-27T03:23:03;10.30;60.80
78886;DHT22;68269;52.514;5.722;2023-05-27T03:25:33;10.30;60.90
78886;DHT22;68269;52.514;5.722;2023-05-27T03:28:04;10.30;60.90
78886;DHT22;68269;52.514;5.722;2023-05-27T03:30:33;10.30;60.90
78886;DHT22;68269;52.514;5.722;2023-05-27T03:33:04;10.30;60.90
78886;DHT22;68269;52.514;5.722;2023-05-27T03:35:36;10.30;60.90
78886;DHT22;68269;52.514;5.722;2023-05-27T03:38:08;10.30;60.90
78886;DHT22;68269;52.514;5.722;2023-05-27T03:40:38;10.30;61.00
78886;DHT22;68269;52.514;5.722;2023-05-27T03:43:09;10.30;61.00
78886;DHT22;68269;52.514;5.722;2023-05-27T03:45:38;10.30;61.10
78886;DHT22;68269;52.514;5.722;2023-05-27T03:48:07;10.30;61.10
78886;DHT22;68269;52.514;5.722;2023-05-27T03:50:37;10.30;61.10
78886;DHT22;68269;52.514;5.722;2023-05-27T03:53:09;10.20;61.20
78886;DHT22;68269;52.514;5.722;2023-05-27T03:55:38;10.30;61.20
78886;DHT22;68269;52.514;5.722;2023-05-27T03:58:07;10.20;61.20
78886;DHT22;68269;52.514;5.722;2023-05-27T04:00:39;10.20;61.20
78886;DHT22;68269;52.514;5.722;2023-05-27T04:03:09;10.30;61.20
78886;DHT22;68269;52.514;5.722;2023-05-27T04:05:38;10.30;61.30
78886;DHT22;68269;52.514;5.722;2023-05-27T04:08:10;10.30;61.30
78886;DHT22;68269;52.514;5.722;2023-05-27T04:10:41;10.40;61.30
78886;DHT22;68269;52.514;5.722;2023-05-27T04:13:10;10.40;61.30
78886;DHT22;68269;52.514;5.722;2023-05-27T04:15:41;10.50;61.40
78886;DHT22;68269;52.514;5.722;2023-05-27T04:18:10;10.50;61.40
78886;DHT22;68269;52.514;5.722;2023-05-27T04:20:40;10.50;61.40
78886;DHT22;68269;52.514;5.722;2023-05-27T04:23:14;10.50;61.50
78886;DHT22;68269;52.514;5.722;2023-05-27T04:25:43;10.50;61.60
78886;DHT22;68269;52.514;5.722;2023-05-27T04:28:15;10.50;61.50
78886;DHT22;68269;52.514;5.722;2023-05-27T04:30:46;10.50;61.60
78886;DHT22;68269;52.514;5.722;2023-05-27T04:33:26;10.50;61.70
78886;DHT22;68269;52.514;5.722;2023-05-27T04:35:55;10.50;61.70
78886;DHT22;68269;52.514;5.722;2023-05-27T04:38:30;10.50;61.70
78886;DHT22;68269;52.514;5.722;2023-05-27T04:41:04;10.60;61.70
78886;DHT22;68269;52.514;5.722;2023-05-27T04:44:01;10.60;61.70
78886;DHT22;68269;52.514;5.722;2023-05-27T04:46:35;10.60;61.70
78886;DHT22;68269;52.514;5.722;2023-05-27T04:49:05;10.60;61.80
78886;DHT22;68269;52.514;5.722;2023-05-27T04:51:34;10.60;61.90
78886;DHT22;68269;52.514;5.722;2023-05-27T04:54:07;10.60;61.90
78886;DHT22;68269;52.514;5.722;2023-05-27T04:56:36;10.70;61.90
78886;DHT22;68269;52.514;5.722;2023-05-27T04:59:08;10.70;61.90
78886;DHT22;68269;52.514;5.722;2023-05-27T05:01:42;10.70;62.00
78886;DHT22;68269;52.514;5.722;2023-05-27T05:04:37;10.70;62.00
78886;DHT22;68269;52.514;5.722;2023-05-27T05:07:07;10.80;62.00
78886;DHT22;68269;52.514;5.722;2023-05-27T05:09:41;10.80;62.10
78886;DHT22;68269;52.514;5.722;2023-05-27T05:12:17;10.80;62.10
78886;DHT22;68269;52.514;5.722;2023-05-27T05:14:51;10.90;62.10
78886;DHT22;68269;52.514;5.722;2023-05-27T05:17:20;10.90;62.10
78886;DHT22;68269;52.514;5.722;2023-05-27T05:19:51;11.00;62.20
78886;DHT22;68269;52.514;5.722;2023-05-27T05:22:22;11.00;62.20
78886;DHT22;68269;52.514;5.722;2023-05-27T05:24:56;11.00;62.20
78886;DHT22;68269;52.514;5.722;2023-05-27T05:27:33;11.10;62.30
78886;DHT22;68269;52.514;5.722;2023-05-27T05:30:05;11.10;62.20
78886;DHT22;68269;52.514;5.722;2023-05-27T05:32:34;11.10;62.30
78886;DHT22;68269;52.514;5.722;2023-05-27T05:35:05;11.10;62.30
78886;DHT22;68269;52.514;5.722;2023-05-27T05:37:35;11.20;62.30
78886;DHT22;68269;52.514;5.722;2023-05-27T05:40:09;11.30;62.40
78886;DHT22;68269;52.514;5.722;2023-05-27T05:42:47;11.30;62.40
78886;DHT22;68269;52.514;5.722;2023-05-27T05:45:16;11.40;62.40
78886;DHT22;68269;52.514;5.722;2023-05-27T05:47:47;11.50;62.40
78886;DHT22;68269;52.514;5.722;2023-05-27T05:50:21;11.50;62.40
78886;DHT22;68269;52.514;5.722;2023-05-27T05:52:51;11.50;62.40
78886;DHT22;68269;52.514;5.722;2023-05-27T05:55:23;11.60;62.40
78886;DHT22;68269;52.514;5.722;2023-05-27T05:57:52;11.70;62.50
78886;DHT22;68269;52.514;5.722;2023-05-27T06:00:22;11.70;62.50
78886;DHT22;68269;52.514;5.722;2023-05-27T06:03:02;11.70;62.40
78886;DHT22;68269;52.514;5.722;2023-05-27T06:05:43;11.80;62.50
78886;DHT22;68269;52.514;5.722;2023-05-27T06:08:12;11.90;62.50
78886;DHT22;68269;52.514;5.722;2023-05-27T06:10:50;11.90;62.40
78886;DHT22;68269;52.514;5.722;2023-05-27T06:13:19;12.00;62.50
78886;DHT22;68269;52.514;5.722;2023-05-27T06:15:51;12.10;62.40
78886;DHT22;68269;52.514;5.722;2023-05-27T06:18:22;12.10;62.40
78886;DHT22;68269;52.514;5.722;2023-05-27T06:20:51;12.20;62.40
78886;DHT22;68269;52.514;5.722;2023-05-27T06:23:23;12.20;62.40
78886;DHT22;68269;52.514;5.722;2023-05-27T06:26:14;12.30;62.40
78886;DHT22;68269;52.514;5.722;2023-05-27T06:28:49;12.30;62.40
78886;DHT22;68269;52.514;5.722;2023-05-27T06:31:18;12.40;62.30
78886;DHT22;68269;52.514;5.722;2023-05-27T06:33:48;12.40;62.40
78886;DHT22;68269;52.514;5.722;2023-05-27T06:36:18;12.50;62.40
78886;DHT22;68269;52.514;5.722;2023-05-27T06:38:48;12.50;62.30
78886;DHT22;68269;52.514;5.722;2023-05-27T06:41:20;12.50;62.40
78886;DHT22;68269;52.514;5.722;2023-05-27T06:44:10;12.50;62.40
78886;DHT22;68269;52.514;5.722;2023-05-27T06:46:51;12.50;62.30
78886;DHT22;68269;52.514;5.722;2023-05-27T06:49:29;12.70;62.30
78886;DHT22;68269;52.514;5.722;2023-05-27T06:52:02;12.80;62.30
78886;DHT22;68269;52.514;5.722;2023-05-27T06:54:39;12.90;62.20
78886;DHT22;68269;52.514;5.722;2023-05-27T06:57:42;13.00;62.20
78886;DHT22;68269;52.514;5.722;2023-05-27T07:00:18;13.10;62.20
78886;DHT22;68269;52.514;5.722;2023-05-27T07:03:08;13.10;62.20
78886;DHT22;68269;52.514;5.722;2023-05-27T07:05:37;13.20;62.20
78886;DHT22;68269;52.514;5.722;2023-05-27T07:08:06;13.30;62.20
78886;DHT22;68269;52.514;5.722;2023-05-27T07:10:36;13.30;62.10
78886;DHT22;68269;52.514;5.722;2023-05-27T07:13:08;13.30;62.10
78886;DHT22;68269;52.514;5.722;2023-05-27T07:15:46;13.30;62.10
78886;DHT22;68269;52.514;5.722;2023-05-27T07:18:15;13.30;62.10
78886;DHT22;68269;52.514;5.722;2023-05-27T07:20:45;13.30;62.20
78886;DHT22;68269;52.514;5.722;2023-05-27T07:23:16;13.30;62.20
78886;DHT22;68269;52.514;5.722;2023-05-27T07:25:52;13.30;62.30
78886;DHT22;68269;52.514;5.722;2023-05-27T07:28:27;13.20;62.40
78886;DHT22;68269;52.514;5.722;2023-05-27T07:31:06;13.20;62.50
78886;DHT22;68269;52.514;5.722;2023-05-27T07:33:42;13.20;62.50
78886;DHT22;68269;52.514;5.722;2023-05-27T07:36:15;13.10;62.60
78886;DHT22;68269;52.514;5.722;2023-05-27T07:38:45;13.10;62.60
78886;DHT22;68269;52.514;5.722;2023-05-27T07:41:15;13.10;62.60
78886;DHT22;68269;52.514;5.722;2023-05-27T07:43:47;13.10;62.60
78886;DHT22;68269;52.514;5.722;2023-05-27T07:46:16;13.10;62.60
78886;DHT22;68269;52.514;5.722;2023-05-27T07:48:46;13.20;62.60
78886;DHT22;68269;52.514;5.722;2023-05-27T07:51:16;13.30;62.50
78886;DHT22;68269;52.514;5.722;2023-05-27T07:53:45;13.30;62.50
78886;DHT22;68269;52.514;5.722;2023-05-27T07:56:15;13.30;62.40
78886;DHT22;68269;52.514;5.722;2023-05-27T07:58:47;13.50;62.30
78886;DHT22;68269;52.514;5.722;2023-05-27T08:01:18;13.50;62.20
78886;DHT22;68269;52.514;5.722;2023-05-27T08:03:52;13.60;62.20
78886;DHT22;68269;52.514;5.722;2023-05-27T08:06:39;13.90;62.10
78886;DHT22;68269;52.514;5.722;2023-05-27T08:09:21;14.00;62.00
78886;DHT22;68269;52.514;5.722;2023-05-27T08:12:26;14.10;61.80
78886;DHT22;68269;52.514;5.722;2023-05-27T08:15:16;14.30;61.70
78886;DHT22;68269;52.514;5.722;2023-05-27T08:18:06;14.50;61.60
78886;DHT22;68269;52.514;5.722;2023-05-27T08:20:52;14.60;61.50
78886;DHT22;68269;52.514;5.722;2023-05-27T08:23:38;14.60;61.40
78886;DHT22;68269;52.514;5.722;2023-05-27T08:26:26;14.80;61.30
78886;DHT22;68269;52.514;5.722;2023-05-27T08:29:08;14.90;61.20
78886;DHT22;68269;52.514;5.722;2023-05-27T08:31:50;15.00;61.20
78886;DHT22;68269;52.514;5.722;2023-05-27T08:34:21;15.10;61.10
78886;DHT22;68269;52.514;5.722;2023-05-27T08:36:52;15.20;61.00
78886;DHT22;68269;52.514;5.722;2023-05-27T08:39:22;15.30;61.00
78886;DHT22;68269;52.514;5.722;2023-05-27T08:42:03;15.50;61.00
78886;DHT22;68269;52.514;5.722;2023-05-27T08:44:32;15.60;60.80
78886;DHT22;68269;52.514;5.722;2023-05-27T08:47:08;15.80;60.70
78886;DHT22;68269;52.514;5.722;2023-05-27T08:49:37;15.80;60.50
78886;DHT22;68269;52.514;5.722;2023-05-27T08:52:09;15.90;60.40
78886;DHT22;68269;52.514;5.722;2023-05-27T08:54:40;16.00;60.40
78886;DHT22;68269;52.514;5.722;2023-05-27T08:57:12;16.10;60.20
78886;DHT22;68269;52.514;5.722;2023-05-27T08:59:44;16.20;60.10
78886;DHT22;68269;52.514;5.722;2023-05-27T09:02:17;16.30;60.00
78886;DHT22;68269;52.514;5.722;2023-05-27T09:04:50;16.40;60.00
78886;DHT22;68269;52.514;5.722;2023-05-27T09:07:20;16.40;59.90
78886;DHT22;68269;52.514;5.722;2023-05-27T09:09:56;16.50;59.90
78886;DHT22;68269;52.514;5.722;2023-05-27T09:12:27;16.60;59.70
78886;DHT22;68269;52.514;5.722;2023-05-27T09:14:56;16.70;59.60
78886;DHT22;68269;52.514;5.722;2023-05-27T09:17:29;16.70;59.60
78886;DHT22;68269;52.514;5.722;2023-05-27T09:19:58;16.80;59.40
78886;DHT22;68269;52.514;5.722;2023-05-27T09:22:29;16.80;59.40
78886;DHT22;68269;52.514;5.722;2023-05-27T09:24:59;17.00;59.30
78886;DHT22;68269;52.514;5.722;2023-05-27T09:27:30;17.00;59.20
78886;DHT22;68269;52.514;5.722;2023-05-27T09:30:06;17.10;59.10
78886;DHT22;68269;52.514;5.722;2023-05-27T09:32:38;17.20;59.00
78886;DHT22;68269;52.514;5.722;2023-05-27T09:35:11;17.40;58.90
78886;DHT22;68269;52.514;5.722;2023-05-27T09:37:41;17.40;58.80
78886;DHT22;68269;52.514;5.722;2023-05-27T09:40:12;17.50;58.80
78886;DHT22;68269;52.514;5.722;2023-05-27T09:42:42;17.60;58.60
78886;DHT22;68269;52.514;5.722;2023-05-27T09:45:13;17.60;58.60
78886;DHT22;68269;52.514;5.722;2023-05-27T09:47:48;17.80;58.50
78886;DHT22;68269;52.514;5.722;2023-05-27T09:50:21;17.80;58.40
78886;DHT22;68269;52.514;5.722;2023-05-27T09:52:50;17.90;58.40
78886;DHT22;68269;52.514;5.722;2023-05-27T09:55:20;18.00;58.30
78886;DHT22;68269;52.514;5.722;2023-05-27T09:57:50;18.00;58.30
78886;DHT22;68269;52.514;5.722;2023-05-27T10:00:21;18.10;58.20
78886;DHT22;68269;52.514;5.722;2023-05-27T10:02:53;18.30;58.00
78886;DHT22;68269;52.514;5.722;2023-05-27T10:05:26;18.40;57.70
78886;DHT22;68269;52.514;5.722;2023-05-27T10:07:56;18.40;57.80
78886;DHT22;68269;52.514;5.722;2023-05-27T10:10:27;18.50;57.70
78886;DHT22;68269;52.514;5.722;2023-05-27T10:12:57;18.50;57.60
78886;DHT22;68269;52.514;5.722;2023-05-27T10:15:29;18.60;57.50
78886;DHT22;68269;52.514;5.722;2023-05-27T10:18:02;18.70;57.40
78886;DHT22;68269;52.514;5.722;2023-05-27T10:20:33;18.80;57.20
78886;DHT22;68269;52.514;5.722;2023-05-27T10:23:10;18.80;57.20
78886;DHT22;68269;52.514;5.722;2023-05-27T10:25:44;19.00;57.10
78886;DHT22;68269;52.514;5.722;2023-05-27T10:28:23;19.10;57.00
78886;DHT22;68269;52.514;5.722;2023-05-27T10:31:02;19.20;57.00
78886;DHT22;68269;52.514;5.722;2023-05-27T10:33:35;19.20;56.90
78886;DHT22;68269;52.514;5.722;2023-05-27T10:36:07;19.30;56.70
78886;DHT22;68269;52.514;5.722;2023-05-27T10:38:38;19.30;56.60
78886;DHT22;68269;52.514;5.722;2023-05-27T10:41:07;19.40;56.60
78886;DHT22;68269;52.514;5.722;2023-05-27T10:43:37;19.40;56.50
78886;DHT22;68269;52.514;5.722;2023-05-27T10:46:08;19.50;56.50
78886;DHT22;68269;52.514;5.722;2023-05-27T10:48:40;19.60;56.30
78886;DHT22;68269;52.514;5.722;2023-05-27T10:51:10;19.70;56.20
78886;DHT22;68269;52.514;5.722;2023-05-27T10:53:39;19.90;56.20
78886;DHT22;68269;52.514;5.722;2023-05-27T10:56:09;20.00;56.20
78886;DHT22;68269;52.514;5.722;2023-05-27T10:58:38;20.10;56.10
78886;DHT22;68269;52.514;5.722;2023-05-27T11:01:10;20.10;56.00
78886;DHT22;68269;52.514;5.722;2023-05-27T11:03:46;20.30;55.80
78886;DHT22;68269;52.514;5.722;2023-05-27T11:06:16;20.30;55.60
78886;DHT22;68269;52.514;5.722;2023-05-27T11:08:45;20.40;55.50
78886;DHT22;68269;52.514;5.722;2023-05-27T11:11:16;20.50;55.30
78886;DHT22;68269;52.514;5.722;2023-05-27T11:13:46;20.60;55.20
78886;DHT22;68269;52.514;5.722;2023-05-27T11:16:16;20.70;55.00
78886;DHT22;68269;52.514;5.722;2023-05-27T11:18:48;20.80;55.00
78886;DHT22;68269;52.514;5.722;2023-05-27T11:21:17;20.90;54.90
78886;DHT22;68269;52.514;5.722;2023-05-27T11:23:48;20.90;54.80
78886;DHT22;68269;52.514;5.722;2023-05-27T11:26:19;21.00;54.60
78886;DHT22;68269;52.514;5.722;2023-05-27T11:28:50;21.10;54.60
78886;DHT22;68269;52.514;5.722;2023-05-27T11:31:22;21.20;54.40
78886;DHT22;68269;52.514;5.722;2023-05-27T11:33:58;21.40;54.40
78886;DHT22;68269;52.514;5.722;2023-05-27T11:36:28;21.50;54.20
78886;DHT22;68269;52.514;5.722;2023-05-27T11:38:59;21.60;54.10
78886;DHT22;68269;52.514;5.722;2023-05-27T11:41:29;21.70;53.90
78886;DHT22;68269;52.514;5.722;2023-05-27T11:44:00;21.80;53.80
78886;DHT22;68269;52.514;5.722;2023-05-27T11:46:36;21.90;53.70
78886;DHT22;68269;52.514;5.722;2023-05-27T11:49:10;22.00;53.60
78886;DHT22;68269;52.514;5.722;2023-05-27T11:51:40;22.00;53.40
78886;DHT22;68269;52.514;5.722;2023-05-27T11:54:18;22.10;53.50
78886;DHT22;68269;52.514;5.722;2023-05-27T11:56:48;22.10;53.30
78886;DHT22;68269;52.514;5.722;2023-05-27T11:59:18;22.20;53.30
78886;DHT22;68269;52.514;5.722;2023-05-27T12:01:48;22.30;53.10
78886;DHT22;68269;52.514;5.722;2023-05-27T12:04:20;22.40;53.00
78886;DHT22;68269;52.514;5.722;2023-05-27T12:06:49;22.50;53.00
78886;DHT22;68269;52.514;5.722;2023-05-27T12:09:19;22.50;53.00
78886;DHT22;68269;52.514;5.722;2023-05-27T12:11:48;22.60;52.90
78886;DHT22;68269;52.514;5.722;2023-05-27T12:14:18;22.70;52.70
78886;DHT22;68269;52.514;5.722;2023-05-27T12:16:47;22.80;52.60
78886;DHT22;68269;52.514;5.722;2023-05-27T12:19:20;22.80;52.50
78886;DHT22;68269;52.514;5.722;2023-05-27T12:21:49;22.80;52.30
78886;DHT22;68269;52.514;5.722;2023-05-27T12:24:18;22.90;52.20
78886;DHT22;68269;52.514;5.722;2023-05-27T12:26:48;22.90;52.20
78886;DHT22;68269;52.514;5.722;2023-05-27T12:29:17;23.10;52.00
78886;DHT22;68269;52.514;5.722;2023-05-27T12:31:47;23.20;52.10
78886;DHT22;68269;52.514;5.722;2023-05-27T12:34:19;23.40;51.90
78886;DHT22;68269;52.514;5.722;2023-05-27T12:36:49;23.40;51.90
78886;DHT22;68269;52.514;5.722;2023-05-27T12:39:18;23.50;51.60
78886;DHT22;68269;52.514;5.722;2023-05-27T12:41:48;23.50;51.40
78886;DHT22;68269;52.514;5.722;2023-05-27T12:44:18;23.50;51.40
78886;DHT22;68269;52.514;5.722;2023-05-27T12:46:47;23.50;51.40
78886;DHT22;68269;52.514;5.722;2023-05-27T12:49:16;23.60;51.40
78886;DHT22;68269;52.514;5.722;2023-05-27T12:51:48;23.60;51.40
78886;DHT22;68269;52.514;5.722;2023-05-27T12:54:18;23.80;51.10
78886;DHT22;68269;52.514;5.722;2023-05-27T12:56:47;23.80;51.00
78886;DHT22;68269;52.514;5.722;2023-05-27T12:59:16;23.80;51.10
78886;DHT22;68269;52.514;5.722;2023-05-27T13:01:46;23.80;51.20
78886;DHT22;68269;52.514;5.722;2023-05-27T13:04:15;23.90;50.90
78886;DHT22;68269;52.514;5.722;2023-05-27T13:06:47;24.00;50.70
78886;DHT22;68269;52.514;5.722;2023-05-27T13:09:17;24.00;50.70
78886;DHT22;68269;52.514;5.722;2023-05-27T13:11:46;24.10;50.60
78886;DHT22;68269;52.514;5.722;2023-05-27T13:14:15;24.20;50.60
78886;DHT22;68269;52.514;5.722;2023-05-27T13:16:45;24.20;50.60
78886;DHT22;68269;52.514;5.722;2023-05-27T13:19:14;24.20;50.40
78886;DHT22;68269;52.514;5.722;2023-05-27T13:21:44;24.30;50.20
78886;DHT22;68269;52.514;5.722;2023-05-27T13:24:16;24.40;50.10
78886;DHT22;68269;52.514;5.722;2023-05-27T13:26:45;24.40;50.00
78886;DHT22;68269;52.514;5.722;2023-05-27T13:29:14;24.40;50.00
78886;DHT22;68269;52.514;5.722;2023-05-27T13:31:44;24.50;50.10
78886;DHT22;68269;52.514;5.722;2023-05-27T13:34:15;24.50;50.00
78886;DHT22;68269;52.514;5.722;2023-05-27T13:36:45;24.50;50.00
78886;DHT22;68269;52.514;5.722;2023-05-27T13:39:17;24.60;49.90
78886;DHT22;68269;52.514;5.722;2023-05-27T13:41:46;24.70;49.60
78886;DHT22;68269;52.514;5.722;2023-05-27T13:44:15;24.70;49.40
78886;DHT22;68269;52.514;5.722;2023-05-27T13:46:44;24.70;49.30
78886;DHT22;68269;52.514;5.722;2023-05-27T13:49:14;24.80;49.20
78886;DHT22;68269;52.514;5.722;2023-05-27T13:51:43;24.70;49.20
78886;DHT22;68269;52.514;5.722;2023-05-27T13:54:15;24.70;49.20
78886;DHT22;68269;52.514;5.722;2023-05-27T13:56:45;24.80;49.20
78886;DHT22;68269;52.514;5.722;2023-05-27T13:59:15;24.80;49.10
78886;DHT22;68269;52.514;5.722;2023-05-27T14:01:45;25.00;48.90
78886;DHT22;68269;52.514;5.722;2023-05-27T14:04:16;25.00;48.90
78886;DHT22;68269;52.514;5.722;2023-05-27T14:06:47;25.00;48.90
78886;DHT22;68269;52.514;5.722;2023-05-27T14:09:19;25.00;48.90
78886;DHT22;68269;52.514;5.722;2023-05-27T14:11:48;25.10;48.80
78886;DHT22;68269;52.514;5.722;2023-05-27T14:14:17;25.20;48.70
78886;DHT22;68269;52.514;5.722;2023-05-27T14:16:46;25.20;48.60
78886;DHT22;68269;52.514;5.722;2023-05-27T14:19:16;25.20;48.50
78886;DHT22;68269;52.514;5.722;2023-05-27T14:21:46;25.20;48.30
78886;DHT22;68269;52.514;5.722;2023-05-27T14:24:18;25.20;48.30
78886;DHT22;68269;52.514;5.722;2023-05-27T14:26:47;25.30;48.20
78886;DHT22;68269;52.514;5.722;2023-05-27T14:29:17;25.30;48.20
78886;DHT22;68269;52.514;5.722;2023-05-27T14:31:46;25.40;48.00
78886;DHT22;68269;52.514;5.722;2023-05-27T14:34:16;25.30;48.00
78886;DHT22;68269;52.514;5.722;2023-05-27T14:36:45;25.30;48.00
78886;DHT22;68269;52.514;5.722;2023-05-27T14:39:14;25.40;47.90
78886;DHT22;68269;52.514;5.722;2023-05-27T14:41:46;25.40;47.90
78886;DHT22;68269;52.514;5.722;2023-05-27T14:44:15;25.50;47.90
78886;DHT22;68269;52.514;5.722;2023-05-27T14:46:45;25.50;47.90
78886;DHT22;68269;52.514;5.722;2023-05-27T14:49:14;25.50;47.90
78886;DHT22;68269;52.514;5.722;2023-05-27T14:51:43;25.60;47.90
78886;DHT22;68269;52.514;5.722;2023-05-27T14:54:13;25.60;47.60
78886;DHT22;68269;52.514;5.722;2023-05-27T14:56:42;25.50;47.50
78886;DHT22;68269;52.514;5.722;2023-05-27T14:59:14;25.50;47.40
78886;DHT22;68269;52.514;5.722;2023-05-27T15:01:43;25.50;47.20
78886;DHT22;68269;52.514;5.722;2023-05-27T15:04:12;25.50;47.20
78886;DHT22;68269;52.514;5.722;2023-05-27T15:06:43;25.60;47.20
78886;DHT22;68269;52.514;5.722;2023-05-27T15:09:12;25.60;47.10
78886;DHT22;68269;52.514;5.722;2023-05-27T15:11:43;25.70;47.10
78886;DHT22;68269;52.514;5.722;2023-05-27T15:14:15;25.80;47.00
78886;DHT22;68269;52.514;5.722;2023-05-27T15:16:44;25.70;47.00
78886;DHT22;68269;52.514;5.722;2023-05-27T15:19:14;25.70;47.00
78886;DHT22;68269;52.514;5.722;2023-05-27T15:21:43;25.60;47.00
78886;DHT22;68269;52.514;5.722;2023-05-27T15:24:12;25.70;47.00
78886;DHT22;68269;52.514;5.722;2023-05-27T15:26:42;25.70;47.10
78886;DHT22;68269;52.514;5.722;2023-05-27T15:29:11;25.70;46.80
78886;DHT22;68269;52.514;5.722;2023-05-27T15:31:43;25.60;46.70
78886;DHT22;68269;52.514;5.722;2023-05-27T15:34:12;25.70;46.60
78886;DHT22;68269;52.514;5.722;2023-05-27T15:36:42;25.80;46.60
78886;DHT22;68269;52.514;5.722;2023-05-27T15:39:11;25.70;46.60
78886;DHT22;68269;52.514;5.722;2023-05-27T15:41:41;25.70;46.50
78886;DHT22;68269;52.514;5.722;2023-05-27T15:44:11;25.60;46.50
78886;DHT22;68269;52.514;5.722;2023-05-27T15:46:42;25.60;46.50
78886;DHT22;68269;52.514;5.722;2023-05-27T15:49:13;25.60;46.60
78886;DHT22;68269;52.514;5.722;2023-05-27T15:51:43;25.60;46.60
78886;DHT22;68269;52.514;5.722;2023-05-27T15:54:12;25.60;46.60
78886;DHT22;68269;52.514;5.722;2023-05-27T15:56:41;25.60;46.60
78886;DHT22;68269;52.514;5.722;2023-05-27T15:59:11;25.60;46.50